createdAt,value
2019-05-22T00:01:19.576Z,87.50
2019-05-22T00:04:05.460Z,88.10
2019-05-22T00:06:38.173Z,87.90
2019-05-22T00:09:11.643Z,88.00
2019-05-22T00:11:44.711Z,87.40
2019-05-22T00:14:16.690Z,86.50
2019-05-22T00:16:48.361Z,89.50
2019-05-22T00:19:21.661Z,90.00
2019-05-22T00:21:54.664Z,90.30
2019-05-22T00:24:26.604Z,89.50
2019-05-22T00:26:59.646Z,89.10
2019-05-22T00:29:32.322Z,89.80
2019-05-22T00:32:05.401Z,87.30
2019-05-22T00:34:37.874Z,85.70
2019-05-22T00:37:10.928Z,87.40
2019-05-22T00:39:46.306Z,87.20
2019-05-22T00:42:19.474Z,85.70
2019-05-22T00:44:52.715Z,84.10
2019-05-22T00:47:24.446Z,85.00
2019-05-22T00:49:57.942Z,85.20
2019-05-22T00:52:47.404Z,84.10
2019-05-22T00:55:38.198Z,86.90
2019-05-22T00:58:26.352Z,87.40
2019-05-22T01:00:59.402Z,88.30
2019-05-22T01:03:32.570Z,88.70
2019-05-22T01:06:05.869Z,88.70
2019-05-22T01:08:39.087Z,87.10
2019-05-22T01:11:12.253Z,88.10
2019-05-22T01:13:44.256Z,86.40
2019-05-22T01:16:17.638Z,85.20
2019-05-22T01:18:49.426Z,85.70
2019-05-22T01:21:23.981Z,86.60
2019-05-22T01:23:57.104Z,85.70
2019-05-22T01:26:28.756Z,84.10
2019-05-22T01:29:00.755Z,83.30
2019-05-22T01:31:33.894Z,82.40
2019-05-22T01:34:06.748Z,81.50
2019-05-22T01:36:39.871Z,81.10
2019-05-22T01:39:30.128Z,80.60
2019-05-22T01:42:03.248Z,80.40
2019-05-22T01:44:36.073Z,80.50
2019-05-22T01:47:13.914Z,79.40
2019-05-22T01:49:51.214Z,79.80
2019-05-22T01:52:24.324Z,79.60
2019-05-22T01:54:56.634Z,81.70
2019-05-22T01:57:29.704Z,82.00
2019-05-22T02:00:01.428Z,79.90
2019-05-22T02:02:34.642Z,78.50
2019-05-22T02:05:06.763Z,78.80
2019-05-22T02:07:38.462Z,82.30
2019-05-22T02:10:09.987Z,80.40
2019-05-22T02:13:01.042Z,79.30
2019-05-22T02:15:34.018Z,79.00
2019-05-22T02:18:08.201Z,78.70
2019-05-22T02:20:40.946Z,77.80
2019-05-22T02:23:12.993Z,78.50
2019-05-22T02:25:44.556Z,78.20
2019-05-22T02:28:16.267Z,77.40
2019-05-22T02:30:49.398Z,80.00
2019-05-22T02:33:22.504Z,79.00
2019-05-22T02:35:55.626Z,79.20
2019-05-22T02:38:28.398Z,79.60
2019-05-22T02:41:00.880Z,78.20
2019-05-22T02:43:33.052Z,77.90
2019-05-22T02:46:06.124Z,77.80
2019-05-22T02:48:42.145Z,78.00
2019-05-22T02:51:12.151Z,78.30
2019-05-22T02:53:44.602Z,78.40
2019-05-22T02:56:16.921Z,79.10
2019-05-22T02:58:48.558Z,79.00
2019-05-22T03:01:21.253Z,78.60
2019-05-22T03:03:52.896Z,77.60
2019-05-22T03:06:24.894Z,79.10
2019-05-22T03:09:02.321Z,78.70
2019-05-22T03:11:39.205Z,78.80
2019-05-22T03:14:10.730Z,81.60
2019-05-22T03:16:56.001Z,80.70
2019-05-22T03:19:37.274Z,80.80
2019-05-22T03:22:23.127Z,79.50
2019-05-22T03:24:56.186Z,79.20
2019-05-22T03:27:41.577Z,78.40
2019-05-22T03:30:22.837Z,80.00
2019-05-22T03:32:56.098Z,77.80
2019-05-22T03:35:27.620Z,79.90
2019-05-22T03:38:00.486Z,79.40
2019-05-22T03:40:32.365Z,79.90
2019-05-22T03:43:16.804Z,81.30
2019-05-22T03:45:51.199Z,80.20
2019-05-22T03:48:22.949Z,79.10
2019-05-22T03:50:56.758Z,79.20
2019-05-22T03:53:28.678Z,78.30
2019-05-22T03:56:00.235Z,78.10
2019-05-22T03:58:31.994Z,77.90
2019-05-22T04:01:04.723Z,77.30
2019-05-22T04:03:36.817Z,76.70
2019-05-22T04:06:09.230Z,76.60
2019-05-22T04:08:41.006Z,77.30
2019-05-22T04:11:12.415Z,76.60
2019-05-22T04:13:44.159Z,76.00
2019-05-22T04:16:19.810Z,75.40
2019-05-22T04:18:51.646Z,75.10
2019-05-22T04:21:23.186Z,74.60
2019-05-22T04:23:54.663Z,74.10
2019-05-22T04:26:27.611Z,74.50
2019-05-22T04:28:59.173Z,73.90
2019-05-22T04:31:48.337Z,73.10
2019-05-22T04:34:21.199Z,73.40
2019-05-22T04:36:53.072Z,73.50
2019-05-22T04:39:25.583Z,73.80
2019-05-22T04:41:58.115Z,73.80
2019-05-22T04:44:30.728Z,73.20
2019-05-22T04:47:02.683Z,72.80
2019-05-22T04:49:34.311Z,72.50
2019-05-22T04:52:06.050Z,71.90
2019-05-22T04:54:37.775Z,71.70
2019-05-22T04:57:10.620Z,71.60
2019-05-22T04:59:42.306Z,71.00
2019-05-22T05:02:14.298Z,70.80
2019-05-22T05:04:45.766Z,70.60
2019-05-22T05:07:18.219Z,70.40
2019-05-22T05:09:50.094Z,70.10
2019-05-22T05:12:22.038Z,70.00
2019-05-22T05:14:53.806Z,69.90
2019-05-22T05:17:25.348Z,69.60
2019-05-22T05:19:57.049Z,68.10
2019-05-22T05:22:47.061Z,68.60
2019-05-22T05:25:19.015Z,69.20
2019-05-22T05:27:51.559Z,69.30
2019-05-22T05:30:50.284Z,68.60
2019-05-22T05:33:21.807Z,68.40
2019-05-22T05:35:53.553Z,68.70
2019-05-22T05:38:27.913Z,68.70
2019-05-22T05:40:59.597Z,68.20
2019-05-22T05:43:31.778Z,67.10
2019-05-22T05:46:03.848Z,67.50
2019-05-22T05:48:36.406Z,68.30
2019-05-22T05:51:10.554Z,68.70
2019-05-22T05:54:01.240Z,68.10
2019-05-22T05:56:33.917Z,66.70
2019-05-22T05:59:06.990Z,68.00
2019-05-22T06:01:42.623Z,68.20
2019-05-22T06:04:14.762Z,68.30
2019-05-22T06:06:48.938Z,67.80
2019-05-22T06:09:22.621Z,67.60
2019-05-22T06:12:04.759Z,66.30
2019-05-22T06:14:36.815Z,66.80
2019-05-22T06:17:46.135Z,64.00
2019-05-22T06:20:19.358Z,64.20
2019-05-22T06:23:05.731Z,65.80
2019-05-22T06:25:37.588Z,65.80
2019-05-22T06:28:09.169Z,65.70
2019-05-22T06:30:42.737Z,65.40
2019-05-22T06:33:23.234Z,65.30
2019-05-22T06:35:54.650Z,64.50
2019-05-22T06:38:48.531Z,64.10
2019-05-22T06:41:21.595Z,63.70
2019-05-22T06:44:24.167Z,63.30
2019-05-22T06:46:55.828Z,62.70
2019-05-22T06:49:37.385Z,62.10
2019-05-22T06:52:09.069Z,61.50
2019-05-22T06:54:41.114Z,61.70
2019-05-22T06:57:13.743Z,61.80
2019-05-22T06:59:46.502Z,62.10
2019-05-22T07:02:19.114Z,62.10
2019-05-22T07:04:51.106Z,62.00
2019-05-22T07:07:23.343Z,61.90
2019-05-22T07:09:55.413Z,61.70
2019-05-22T07:12:28.363Z,61.40
2019-05-22T07:15:08.334Z,61.10
2019-05-22T07:17:41.215Z,60.80
2019-05-22T07:20:13.006Z,60.50
2019-05-22T07:22:45.104Z,59.50
2019-05-22T07:25:17.171Z,59.80
2019-05-22T07:27:49.266Z,59.10
2019-05-22T07:30:20.784Z,59.50
2019-05-22T07:32:52.751Z,59.70
2019-05-22T07:35:24.891Z,59.80
2019-05-22T07:37:56.948Z,59.80
2019-05-22T07:40:28.682Z,59.70
2019-05-22T07:43:00.213Z,59.60
2019-05-22T07:45:32.027Z,59.50
2019-05-22T07:48:03.886Z,59.10
2019-05-22T07:50:37.221Z,59.20
2019-05-22T07:53:08.687Z,59.30
2019-05-22T07:55:39.945Z,59.10
2019-05-22T07:58:12.639Z,59.20
2019-05-22T08:00:46.763Z,59.10
2019-05-22T08:03:18.589Z,58.90
2019-05-22T08:05:51.626Z,59.00
2019-05-22T08:08:23.524Z,58.40
2019-05-22T08:10:55.750Z,58.90
2019-05-22T08:13:28.190Z,58.80
2019-05-22T08:15:59.785Z,58.90
2019-05-22T08:18:32.773Z,56.70
2019-05-22T08:21:04.719Z,58.40
2019-05-22T08:23:36.919Z,58.90
2019-05-22T08:26:08.907Z,59.00
2019-05-22T08:28:40.691Z,59.30
2019-05-22T08:31:13.387Z,59.20
2019-05-22T08:33:45.043Z,59.20
2019-05-22T08:36:16.672Z,59.10
2019-05-22T08:38:48.585Z,58.80
2019-05-22T08:41:21.664Z,58.70
2019-05-22T08:44:14.541Z,58.70
2019-05-22T08:46:26.006Z,58.40
2019-05-22T08:48:58.060Z,58.40
2019-05-22T08:51:30.028Z,57.40
2019-05-22T08:54:05.793Z,57.80
2019-05-22T08:56:39.230Z,57.50
2019-05-22T08:59:19.492Z,57.80
2019-05-22T09:01:44.632Z,57.90
2019-05-22T09:04:16.507Z,58.00
2019-05-22T09:06:48.151Z,58.00
2019-05-22T09:09:20.084Z,58.00
2019-05-22T09:11:51.812Z,58.00
2019-05-22T09:14:23.697Z,57.90
2019-05-22T09:16:56.018Z,57.70
2019-05-22T09:19:30.706Z,56.90
2019-05-22T09:22:05.138Z,55.10
2019-05-22T09:24:37.043Z,56.10
2019-05-22T09:27:08.985Z,57.10
2019-05-22T09:29:43.602Z,57.50
2019-05-22T09:32:15.282Z,57.70
2019-05-22T09:34:47.306Z,57.70
2019-05-22T09:37:18.849Z,57.60
2019-05-22T09:39:50.554Z,57.60
2019-05-22T09:42:22.625Z,57.50
2019-05-22T09:44:54.122Z,57.20
2019-05-22T09:47:26.293Z,57.30
2019-05-22T09:49:58.141Z,56.50
2019-05-22T09:52:32.292Z,57.20
2019-05-22T09:55:03.808Z,57.30
2019-05-22T09:57:36.941Z,57.40
2019-05-22T10:00:13.082Z,56.10
2019-05-22T10:02:45.059Z,56.60
2019-05-22T10:05:16.660Z,57.00
2019-05-22T10:07:59.272Z,57.70
2019-05-22T10:10:21.629Z,57.90
2019-05-22T10:12:53.656Z,58.00
2019-05-22T10:15:26.515Z,58.10
2019-05-22T10:17:58.479Z,58.10
2019-05-22T10:20:30.122Z,58.10
2019-05-22T10:23:14.951Z,58.10
2019-05-22T10:25:35.241Z,58.10
2019-05-22T10:28:08.374Z,58.20
2019-05-22T10:30:40.009Z,57.90
2019-05-22T10:33:12.285Z,57.80
2019-05-22T10:35:43.838Z,58.00
2019-05-22T10:38:15.843Z,58.10
2019-05-22T10:40:47.567Z,58.00
2019-05-22T10:43:19.462Z,57.90
2019-05-22T10:45:51.232Z,58.50
2019-05-22T10:48:23.103Z,58.60
2019-05-22T10:50:54.825Z,58.80
2019-05-22T10:53:33.700Z,59.00
2019-05-22T10:55:59.906Z,59.20
2019-05-22T10:58:31.660Z,59.40
2019-05-22T11:01:03.215Z,59.50
2019-05-22T11:03:35.571Z,59.40
2019-05-22T11:06:08.039Z,59.50
2019-05-22T11:08:40.314Z,59.60
2019-05-22T11:11:12.087Z,59.70
2019-05-22T11:14:00.063Z,59.70
2019-05-22T11:16:17.094Z,59.80
2019-05-22T11:18:49.055Z,59.80
2019-05-22T11:21:20.906Z,60.10
2019-05-22T11:23:53.303Z,59.80
2019-05-22T11:26:24.949Z,59.80
2019-05-22T11:28:56.918Z,59.80
2019-05-22T11:31:28.966Z,59.90
2019-05-22T11:34:00.802Z,60.20
2019-05-22T11:36:32.789Z,60.00
2019-05-22T11:39:05.802Z,60.10
2019-05-22T11:41:37.377Z,60.20
2019-05-22T11:44:09.523Z,60.50
2019-05-22T11:46:41.789Z,60.50
2019-05-22T11:49:13.435Z,60.70
2019-05-22T11:51:45.193Z,60.80
2019-05-22T11:54:19.536Z,60.70
2019-05-22T11:56:51.201Z,60.90
2019-05-22T11:59:23.097Z,60.90
2019-05-22T12:01:55.146Z,61.30
2019-05-22T12:04:27.042Z,61.30
2019-05-22T12:06:58.686Z,62.20
2019-05-22T12:09:32.418Z,61.30
2019-05-22T12:12:04.803Z,61.70
2019-05-22T12:14:36.937Z,61.60
2019-05-22T12:17:12.051Z,61.40
2019-05-22T12:19:44.360Z,61.80
2019-05-22T12:22:19.703Z,61.70
2019-05-22T12:24:49.361Z,61.50
2019-05-22T12:27:21.396Z,61.70
2019-05-22T12:29:56.750Z,61.90
2019-05-22T12:32:28.995Z,61.90
2019-05-22T12:35:01.134Z,62.10
2019-05-22T12:37:32.626Z,62.30
2019-05-22T12:40:05.322Z,62.10
2019-05-22T12:42:37.080Z,62.00
2019-05-22T12:45:10.879Z,62.70
2019-05-22T12:47:43.208Z,63.00
2019-05-22T12:50:16.836Z,62.80
2019-05-22T12:52:50.185Z,63.30
2019-05-22T12:55:23.717Z,63.50
2019-05-22T12:57:55.346Z,64.60
2019-05-22T13:00:28.623Z,64.40
2019-05-22T13:03:01.357Z,63.80
2019-05-22T13:05:33.763Z,64.60
2019-05-22T13:08:05.504Z,64.80
2019-05-22T13:10:37.606Z,64.40
2019-05-22T13:13:09.494Z,64.50
2019-05-22T13:15:41.151Z,64.00
2019-05-22T13:18:14.256Z,64.50
2019-05-22T13:20:46.665Z,64.60
2019-05-22T13:23:19.795Z,64.50
2019-05-22T13:25:51.466Z,65.30
2019-05-22T13:28:23.430Z,65.10
2019-05-22T13:30:56.302Z,66.20
2019-05-22T13:33:29.384Z,65.20
2019-05-22T13:36:01.114Z,65.90
2019-05-22T13:38:33.258Z,66.90
2019-05-22T13:41:05.294Z,67.10
2019-05-22T13:43:37.494Z,66.70
2019-05-22T13:46:09.141Z,66.60
2019-05-22T13:48:41.110Z,66.00
2019-05-22T13:51:13.092Z,66.40
2019-05-22T13:53:45.183Z,66.60
2019-05-22T13:56:17.147Z,66.40
2019-05-22T13:58:49.033Z,66.30
2019-05-22T14:01:20.611Z,66.30
2019-05-22T14:03:52.324Z,66.60
2019-05-22T14:06:24.350Z,66.70
2019-05-22T14:08:56.237Z,67.10
2019-05-22T14:11:28.248Z,67.60
2019-05-22T14:14:00.062Z,67.30
2019-05-22T14:16:32.339Z,68.20
2019-05-22T14:19:04.059Z,67.20
2019-05-22T14:21:35.905Z,67.10
2019-05-22T14:24:07.521Z,66.90
2019-05-22T14:26:39.483Z,67.10
2019-05-22T14:29:11.237Z,68.20
2019-05-22T14:31:43.107Z,67.00
2019-05-22T14:34:14.675Z,66.90
2019-05-22T14:36:46.703Z,67.40
2019-05-22T14:39:18.900Z,67.40
2019-05-22T14:41:50.967Z,68.30
2019-05-22T14:44:23.037Z,68.60
2019-05-22T14:46:54.854Z,68.70
2019-05-22T14:49:26.659Z,68.90
2019-05-22T14:51:58.536Z,68.40
2019-05-22T14:54:30.260Z,68.30
2019-05-22T14:57:02.364Z,68.80
2019-05-22T14:59:33.950Z,68.30
2019-05-22T15:02:05.915Z,68.30
2019-05-22T15:04:38.671Z,68.30
2019-05-22T15:07:10.627Z,67.80
2019-05-22T15:09:42.177Z,68.00
2019-05-22T15:12:14.069Z,68.10
2019-05-22T15:14:45.690Z,68.40
2019-05-22T15:17:31.869Z,68.70
2019-05-22T15:19:50.596Z,68.50
2019-05-22T15:22:22.532Z,68.30
2019-05-22T15:24:54.276Z,68.30
2019-05-22T15:27:26.135Z,68.20
2019-05-22T15:29:58.053Z,68.40
2019-05-22T15:32:29.710Z,68.20
2019-05-22T15:35:01.679Z,68.00
2019-05-22T15:37:34.279Z,68.50
2019-05-22T15:40:06.126Z,68.50
2019-05-22T15:42:39.570Z,68.60
2019-05-22T15:45:15.870Z,69.30
2019-05-22T15:47:55.640Z,68.60
2019-05-22T15:50:26.648Z,68.90
2019-05-22T15:53:01.081Z,69.40
2019-05-22T15:55:34.758Z,69.00
2019-05-22T15:58:08.031Z,69.00
2019-05-22T16:00:41.364Z,69.00
2019-05-22T16:03:18.245Z,69.90
2019-05-22T16:05:50.780Z,70.30
2019-05-22T16:08:22.667Z,70.90
2019-05-22T16:10:58.857Z,70.90
2019-05-22T16:13:28.479Z,71.00
2019-05-22T16:16:00.827Z,70.20
2019-05-22T16:18:33.982Z,72.50
2019-05-22T16:21:07.395Z,72.00
2019-05-22T16:23:40.482Z,71.30
2019-05-22T16:26:13.031Z,71.00
2019-05-22T16:28:45.794Z,71.30
2019-05-22T16:31:17.931Z,71.10
2019-05-22T16:33:50.018Z,72.30
2019-05-22T16:36:22.354Z,73.70
2019-05-22T16:38:54.585Z,73.00
2019-05-22T16:41:26.723Z,71.60
2019-05-22T16:43:58.911Z,71.30
2019-05-22T16:46:30.486Z,71.40
2019-05-22T16:49:02.486Z,71.30
2019-05-22T16:51:34.278Z,71.30
2019-05-22T16:54:07.793Z,71.20
2019-05-22T16:56:39.639Z,71.80
2019-05-22T16:59:12.867Z,71.20
2019-05-22T17:01:58.854Z,71.20
2019-05-22T17:04:18.416Z,71.10
2019-05-22T17:06:50.612Z,70.90
2019-05-22T17:09:22.859Z,71.00
2019-05-22T17:11:55.047Z,70.80
2019-05-22T17:14:27.585Z,71.00
2019-05-22T17:16:59.282Z,72.50
2019-05-22T17:19:31.147Z,73.70
2019-05-22T17:22:03.197Z,76.00
2019-05-22T17:24:35.060Z,74.80
2019-05-22T17:27:06.906Z,73.20
2019-05-22T17:29:38.909Z,72.70
2019-05-22T17:32:11.744Z,72.60
2019-05-22T17:34:43.562Z,72.40
2019-05-22T17:37:16.692Z,72.30
2019-05-22T17:39:49.991Z,72.30
2019-05-22T17:42:22.203Z,73.30
2019-05-22T17:44:54.505Z,74.60
2019-05-22T17:47:27.751Z,75.20
2019-05-22T17:50:00.107Z,77.50
2019-05-22T17:52:32.069Z,75.00
2019-05-22T17:55:04.002Z,74.00
2019-05-22T17:57:35.738Z,74.00
2019-05-22T18:00:11.959Z,74.30
2019-05-22T18:02:43.539Z,74.90
2019-05-22T18:05:15.777Z,74.80
2019-05-22T18:07:48.004Z,73.50
2019-05-22T18:10:19.664Z,73.30
2019-05-22T18:12:51.141Z,73.20
2019-05-22T18:15:24.807Z,73.00
2019-05-22T18:17:56.612Z,73.10
2019-05-22T18:20:41.856Z,73.50
2019-05-22T18:23:01.832Z,74.60
2019-05-22T18:25:34.334Z,73.70
2019-05-22T18:28:06.299Z,73.30
2019-05-22T18:30:39.584Z,73.10
2019-05-22T18:33:11.337Z,72.90
2019-05-22T18:35:43.152Z,73.70
2019-05-22T18:38:14.773Z,73.00
2019-05-22T18:40:46.986Z,73.00
2019-05-22T18:43:18.938Z,73.20
2019-05-22T18:45:50.907Z,73.20
2019-05-22T18:48:22.943Z,74.40
2019-05-22T18:50:55.222Z,74.60
2019-05-22T18:53:26.772Z,73.80
2019-05-22T18:55:58.390Z,73.50
2019-05-22T18:58:30.278Z,73.20
2019-05-22T19:01:04.110Z,73.30
2019-05-22T19:03:35.992Z,73.10
2019-05-22T19:06:07.687Z,73.40
2019-05-22T19:08:39.368Z,73.00
2019-05-22T19:11:11.244Z,73.10
2019-05-22T19:13:42.728Z,72.60
2019-05-22T19:16:14.865Z,72.40
2019-05-22T19:18:46.829Z,72.60
2019-05-22T19:21:18.747Z,72.50
2019-05-22T19:23:50.347Z,72.50
2019-05-22T19:26:22.030Z,72.50
2019-05-22T19:28:54.015Z,73.40
2019-05-22T19:31:25.950Z,74.20
2019-05-22T19:33:57.608Z,74.30
2019-05-22T19:36:29.203Z,73.20
2019-05-22T19:39:00.572Z,73.40
2019-05-22T19:41:32.380Z,73.40
2019-05-22T19:44:04.759Z,73.20
2019-05-22T19:46:36.649Z,73.60
2019-05-22T19:49:08.883Z,73.90
2019-05-22T19:51:41.258Z,75.30
2019-05-22T19:54:13.539Z,75.50
2019-05-22T19:56:45.575Z,75.70
2019-05-22T19:59:18.315Z,76.70
2019-05-22T20:01:50.967Z,76.40
2019-05-22T20:04:22.554Z,78.20
2019-05-22T20:06:54.507Z,78.30
2019-05-22T20:09:27.157Z,76.80
2019-05-22T20:11:59.556Z,76.30
2019-05-22T20:14:30.937Z,77.00
2019-05-22T20:17:03.051Z,76.60
2019-05-22T20:19:34.522Z,76.40
2019-05-22T20:22:06.010Z,76.00
2019-05-22T20:24:37.778Z,75.10
2019-05-22T20:27:10.102Z,74.70
2019-05-22T20:29:42.105Z,75.20
2019-05-22T20:32:15.398Z,74.60
2019-05-22T20:34:47.676Z,74.50
2019-05-22T20:37:19.537Z,74.10
2019-05-22T20:39:51.379Z,74.50
2019-05-22T20:42:23.241Z,74.20
2019-05-22T20:44:55.339Z,74.40
2019-05-22T20:47:28.383Z,74.10
2019-05-22T20:50:01.525Z,74.30
2019-05-22T20:52:33.277Z,74.80
2019-05-22T20:55:05.148Z,74.20
2019-05-22T20:57:37.068Z,74.40
2019-05-22T21:00:09.846Z,75.30
2019-05-22T21:02:41.683Z,74.70
2019-05-22T21:05:14.752Z,74.60
2019-05-22T21:07:50.867Z,74.40
2019-05-22T21:10:24.690Z,74.50
2019-05-22T21:12:57.552Z,74.80
2019-05-22T21:15:30.790Z,74.80
2019-05-22T21:18:02.546Z,74.30
2019-05-22T21:20:34.524Z,74.30
2019-05-22T21:23:06.410Z,74.30
2019-05-22T21:25:38.100Z,74.30
2019-05-22T21:28:11.016Z,74.20
2019-05-22T21:30:43.026Z,74.00
2019-05-22T21:33:15.412Z,74.60
2019-05-22T21:35:47.123Z,75.40
2019-05-22T21:38:19.605Z,74.80
2019-05-22T21:40:52.493Z,74.60
2019-05-22T21:43:24.465Z,74.80
2019-05-22T21:45:56.028Z,75.90
2019-05-22T21:48:27.672Z,74.80
2019-05-22T21:50:59.681Z,74.80
2019-05-22T21:53:31.091Z,74.90
2019-05-22T21:56:05.954Z,75.00
2019-05-22T21:58:35.992Z,75.50
2019-05-22T22:01:11.821Z,76.00
2019-05-22T22:03:55.976Z,76.40
2019-05-22T22:06:32.761Z,76.70
2019-05-22T22:09:02.246Z,76.40
2019-05-22T22:11:34.919Z,76.10
2019-05-22T22:14:07.670Z,76.20
2019-05-22T22:16:40.900Z,75.90
2019-05-22T22:19:12.546Z,76.00
2019-05-22T22:21:44.630Z,75.50
2019-05-22T22:24:16.669Z,75.40
2019-05-22T22:26:48.656Z,75.20
2019-05-22T22:29:20.318Z,75.20
2019-05-22T22:31:53.336Z,75.10
2019-05-22T22:34:27.758Z,74.90
2019-05-22T22:36:59.627Z,75.70
2019-05-22T22:39:32.506Z,75.50
2019-05-22T22:42:05.538Z,75.20
2019-05-22T22:44:38.258Z,75.10
2019-05-22T22:47:16.872Z,75.00
2019-05-22T22:49:49.558Z,75.10
2019-05-22T22:52:21.538Z,75.70
2019-05-22T22:54:54.021Z,75.50
2019-05-22T22:57:25.826Z,75.60
2019-05-22T22:59:58.032Z,75.90
2019-05-22T23:02:32.338Z,75.30
2019-05-22T23:05:04.713Z,76.80
2019-05-22T23:07:36.997Z,76.10
2019-05-22T23:10:11.007Z,76.90
2019-05-22T23:12:42.930Z,77.20
2019-05-22T23:15:18.111Z,76.90
2019-05-22T23:17:48.097Z,79.00
2019-05-22T23:20:18.594Z,76.90
2019-05-22T23:22:49.159Z,76.60
2019-05-22T23:25:21.620Z,76.50
2019-05-22T23:27:53.238Z,76.40
2019-05-22T23:30:48.556Z,76.20
2019-05-22T23:33:20.661Z,76.60
2019-05-22T23:35:52.652Z,77.00
2019-05-22T23:38:24.506Z,76.80
2019-05-22T23:40:56.373Z,76.70
2019-05-22T23:43:29.246Z,76.70
2019-05-22T23:46:01.868Z,76.40
2019-05-22T23:48:34.685Z,77.10
2019-05-22T23:51:07.723Z,76.30
2019-05-22T23:53:40.425Z,75.70
2019-05-22T23:56:12.846Z,76.00
2019-05-22T23:58:52.686Z,78.00
